^^
Meteo Knjazevac Station Historical Data
Daily Summary for May 18, 2022 Units:  Both    English   Metric
Daily Weekly Monthly Yearly Custom
  High: Low: Average:
Temperature: 75.6 °F /  24.2 °C 44.8 °F /  7.1 °C 63.7 °F /  17.6 °C
Dew Point: 59.7 °F /  15.4 °C 40.8 °F /  4.9 °C 52.9 °F /  11.6 °C
Humidity: 90% 34% 70%
Wind Speed: 10mph /  16.1km/h - 4mph /  6.4km/h
Wind Gust: 21mph /  33.8km/h - -
Wind- - WNW
Pressure: 30.35 in /  1027.7 hPa 30.03 in /  1016.8 hPa -
Precipitation: 0.00 in /  0 mm    
Historical Graphs
 
 
Tabular Data for May 18, 2022
Time Temperature Dew Point Pressure Wind Wind Speed Wind Gust Humidity Rainfall Rate (Hourly) solar Conditions
00:00 64.9 °F /  18.3 °C 56.8 °F /  13.8 °C 30.05in /  1017.5hPa SW 5mph /  8km/h 9mph /  14.5km/h 75% 0.00in /  0mm 0 W/m2
00:10 64.8 °F /  18.2 °C 56.6 °F /  13.7 °C 30.04in /  1017.2hPa WSW 2mph /  3.2km/h 9mph /  14.5km/h 75% 0.00in /  0mm 0 W/m2
00:20 64.6 °F /  18.1 °C 56.8 °F /  13.8 °C 30.04in /  1017.2hPa SW 3mph /  4.8km/h 6mph /  9.7km/h 76% 0.00in /  0mm 0 W/m2
00:30 64.1 °F /  17.8 °C 57.1 °F /  13.9 °C 30.04in /  1017.2hPa SW 6mph /  9.7km/h 11mph /  17.7km/h 78% 0.00in /  0mm 0 W/m2
00:40 63.7 °F /  17.6 °C 57.4 °F /  14.1 °C 30.04in /  1017.2hPa SW 8mph /  12.9km/h 12mph /  19.3km/h 80% 0.00in /  0mm 0 W/m2
00:50 63.5 °F /  17.5 °C 57.2 °F /  14 °C 30.05in /  1017.5hPa SW 5mph /  8km/h 9mph /  14.5km/h 80% 0.00in /  0mm 0 W/m2
01:00 63.3 °F /  17.4 °C 57.4 °F /  14.1 °C 30.05in /  1017.5hPa SSW 3mph /  4.8km/h 9mph /  14.5km/h 81% 0.00in /  0mm 0 W/m2
01:10 63.1 °F /  17.3 °C 56.9 °F /  13.8 °C 30.05in /  1017.5hPa SW 2mph /  3.2km/h 5mph /  8km/h 80% 0.00in /  0mm 0 W/m2
01:20 63.1 °F /  17.3 °C 56.9 °F /  13.8 °C 30.05in /  1017.5hPa SSW 2mph /  3.2km/h 5mph /  8km/h 80% 0.00in /  0mm 0 W/m2
01:30 63.1 °F /  17.3 °C 56.9 °F /  13.8 °C 30.05in /  1017.5hPa SW 2mph /  3.2km/h 5mph /  8km/h 80% 0.00in /  0mm 0 W/m2
01:40 63 °F /  17.2 °C 57.1 °F /  13.9 °C 30.04in /  1017.2hPa SW 6mph /  9.7km/h 9mph /  14.5km/h 81% 0.00in /  0mm 0 W/m2
01:50 62.8 °F /  17.1 °C 56.9 °F /  13.8 °C 30.04in /  1017.2hPa SW 5mph /  8km/h 10mph /  16.1km/h 81% 0.00in /  0mm 0 W/m2
02:00 62.8 °F /  17.1 °C 57.5 °F /  14.2 °C 30.04in /  1017.2hPa SW 5mph /  8km/h 8mph /  12.9km/h 83% 0.00in /  0mm 0 W/m2
02:10 62.8 °F /  17.1 °C 57.5 °F /  14.2 °C 30.04in /  1017.2hPa SW 5mph /  8km/h 8mph /  12.9km/h 83% 0.00in /  0mm 0 W/m2
02:20 62.8 °F /  17.1 °C 57.5 °F /  14.2 °C 30.04in /  1017.2hPa SW 3mph /  4.8km/h 8mph /  12.9km/h 83% 0.00in /  0mm 0 W/m2
02:30 62.8 °F /  17.1 °C 57.5 °F /  14.2 °C 30.04in /  1017.2hPa SW 1mph /  1.6km/h 5mph /  8km/h 83% 0.00in /  0mm 0 W/m2
02:40 63 °F /  17.2 °C 57.7 °F /  14.3 °C 30.04in /  1017.2hPa Calm   2mph /  3.2km/h 83% 0.00in /  0mm 0 W/m2
02:50 63 °F /  17.2 °C 57.7 °F /  14.3 °C 30.03in /  1016.8hPa SW 3mph /  4.8km/h 6mph /  9.7km/h 83% 0.00in /  0mm 0 W/m2
03:00 63 °F /  17.2 °C 57.8 °F /  14.3 °C 30.03in /  1016.8hPa SW 5mph /  8km/h 6mph /  9.7km/h 83% 0.00in /  0mm 0 W/m2
03:10 63 °F /  17.2 °C 57.7 °F /  14.3 °C 30.04in /  1017.2hPa SW 5mph /  8km/h 7mph /  11.3km/h 83% 0.00in /  0mm 0 W/m2
03:20 63 °F /  17.2 °C 58 °F /  14.4 °C 30.04in /  1017.2hPa SW 5mph /  8km/h 7mph /  11.3km/h 84% 0.00in /  0mm 0 W/m2
03:30 63 °F /  17.2 °C 58 °F /  14.4 °C 30.04in /  1017.2hPa SW 2mph /  3.2km/h 6mph /  9.7km/h 84% 0.00in /  0mm 0 W/m2
03:40 63 °F /  17.2 °C 58 °F /  14.4 °C 30.04in /  1017.2hPa SW 3mph /  4.8km/h 8mph /  12.9km/h 84% 0.00in /  0mm 0 W/m2
03:50 63 °F /  17.2 °C 58 °F /  14.4 °C 30.03in /  1016.8hPa SW 5mph /  8km/h 9mph /  14.5km/h 84% 0.00in /  0mm 0 W/m2
04:00 63 °F /  17.2 °C 58.4 °F /  14.7 °C 30.03in /  1016.8hPa SW 5mph /  8km/h 10mph /  16.1km/h 85% 0.00in /  0mm 0 W/m2
04:10 63 °F /  17.2 °C 58.4 °F /  14.7 °C 30.03in /  1016.8hPa SW 6mph /  9.7km/h 8mph /  12.9km/h 85% 0.00in /  0mm 0 W/m2
04:20 63 °F /  17.2 °C 58.4 °F /  14.7 °C 30.03in /  1016.8hPa WSW 5mph /  8km/h 7mph /  11.3km/h 85% 0.00in /  0mm 0 W/m2
04:30 62.8 °F /  17.1 °C 58.3 °F /  14.6 °C 30.03in /  1016.8hPa SW 7mph /  11.3km/h 9mph /  14.5km/h 85% 0.00in /  0mm 0 W/m2
04:40 63 °F /  17.2 °C 58.4 °F /  14.7 °C 30.03in /  1016.8hPa SW 6mph /  9.7km/h 10mph /  16.1km/h 85% 0.00in /  0mm 0 W/m2
05:00 63 °F /  17.2 °C 58.4 °F /  14.7 °C 30.04in /  1017.2hPa SW 5mph /  8km/h 6mph /  9.7km/h 85% 0.00in /  0mm 0 W/m2
05:10 63 °F /  17.2 °C 59.3 °F /  15.2 °C 30.04in /  1017.2hPa WSW 3mph /  4.8km/h 6mph /  9.7km/h 88% 0.01in /  0.25mm 0 W/m2
05:20 62.8 °F /  17.1 °C 59.5 °F /  15.3 °C 30.04in /  1017.2hPa SW 3mph /  4.8km/h 7mph /  11.3km/h 89% 0.00in /  0mm 0 W/m2
05:30 62.6 °F /  17 °C 59.3 °F /  15.2 °C 30.04in /  1017.2hPa SW 3mph /  4.8km/h 6mph /  9.7km/h 89% 0.00in /  0mm 3 W/m2
05:40 62.4 °F /  16.9 °C 59.1 °F /  15.1 °C 30.04in /  1017.2hPa SW 5mph /  8km/h 7mph /  11.3km/h 89% 0.00in /  0mm 8 W/m2
05:50 62.4 °F /  16.9 °C 59.4 °F /  15.2 °C 30.04in /  1017.2hPa WSW 3mph /  4.8km/h 7mph /  11.3km/h 90% 0.00in /  0mm 14 W/m2
06:00 62.4 °F /  16.9 °C 59.4 °F /  15.2 °C 30.05in /  1017.5hPa Calm   5mph /  8km/h 90% 0.00in /  0mm 10 W/m2
06:10 62.4 °F /  16.9 °C 59.4 °F /  15.2 °C 30.05in /  1017.5hPa West 1mph /  1.6km/h 3mph /  4.8km/h 90% 0.00in /  0mm 8 W/m2
06:20 62.4 °F /  16.9 °C 59.4 °F /  15.2 °C 30.05in /  1017.5hPa WSW 2mph /  3.2km/h 6mph /  9.7km/h 90% 0.00in /  0mm 10 W/m2
06:30 62.6 °F /  17 °C 59.3 °F /  15.2 °C 30.06in /  1017.8hPa WSW 1mph /  1.6km/h 6mph /  9.7km/h 89% 0.00in /  0mm 11 W/m2
06:40 62.7 °F /  17.1 °C 59.4 °F /  15.2 °C 30.06in /  1017.8hPa West 1mph /  1.6km/h 4mph /  6.4km/h 89% 0.00in /  0mm 13 W/m2
06:50 62.8 °F /  17.1 °C 59.2 °F /  15.1 °C 30.06in /  1017.8hPa Calm   4mph /  6.4km/h 88% 0.00in /  0mm 18 W/m2
07:00 63 °F /  17.2 °C 59.7 °F /  15.4 °C 30.06in /  1017.8hPa WSW 2mph /  3.2km/h 6mph /  9.7km/h 89% 0.00in /  0mm 27 W/m2
07:10 63.1 °F /  17.3 °C 59.5 °F /  15.3 °C 30.06in /  1017.8hPa NW 1mph /  1.6km/h 5mph /  8km/h 88% 0.00in /  0mm 49 W/m2
07:20 63.3 °F /  17.4 °C 59.1 °F /  15.1 °C 30.06in /  1017.8hPa NW 1mph /  1.6km/h 3mph /  4.8km/h 86% 0.00in /  0mm 60 W/m2
07:30 63.5 °F /  17.5 °C 59.2 °F /  15.1 °C 30.06in /  1017.8hPa West 2mph /  3.2km/h 6mph /  9.7km/h 86% 0.00in /  0mm 54 W/m2
07:40 63.7 °F /  17.6 °C 59.4 °F /  15.2 °C 30.06in /  1017.8hPa WSW 2mph /  3.2km/h 7mph /  11.3km/h 86% 0.00in /  0mm 86 W/m2
07:50 63.9 °F /  17.7 °C 59.6 °F /  15.3 °C 30.06in /  1017.8hPa WSW 5mph /  8km/h 8mph /  12.9km/h 86% 0.00in /  0mm 109 W/m2
08:00 63.9 °F /  17.7 °C 59.3 °F /  15.2 °C 30.07in /  1018.2hPa West 3mph /  4.8km/h 12mph /  19.3km/h 85% 0.00in /  0mm 126 W/m2
08:10 64.2 °F /  17.9 °C 59.2 °F /  15.1 °C 30.08in /  1018.5hPa WNW 5mph /  8km/h 7mph /  11.3km/h 84% 0.00in /  0mm 116 W/m2
08:20 64.4 °F /  18 °C 59.1 °F /  15.1 °C 30.08in /  1018.5hPa West 5mph /  8km/h 10mph /  16.1km/h 83% 0.00in /  0mm 428 W/m2
08:30 65.4 °F /  18.6 °C 59.1 °F /  15.1 °C 30.08in /  1018.5hPa West 7mph /  11.3km/h 14mph /  22.5km/h 80% 0.00in /  0mm 493 W/m2
08:40 66.3 °F /  19.1 °C 59.6 °F /  15.3 °C 30.09in /  1018.8hPa WNW 5mph /  8km/h 14mph /  22.5km/h 79% 0.00in /  0mm 242 W/m2
08:50 66.2 °F /  19 °C 59.1 °F /  15.1 °C 30.09in /  1018.8hPa West 5mph /  8km/h 11mph /  17.7km/h 78% 0.00in /  0mm 247 W/m2
09:00 66.2 °F /  19 °C 58.8 °F /  14.9 °C 30.09in /  1018.8hPa West 8mph /  12.9km/h 13mph /  20.9km/h 77% 0.00in /  0mm 384 W/m2
09:20 67.2 °F /  19.6 °C 58.6 °F /  14.8 °C 30.10in /  1019.2hPa West 7mph /  11.3km/h 12mph /  19.3km/h 74% 0.00in /  0mm 373 W/m2
09:30 67.3 °F /  19.6 °C 57.9 °F /  14.4 °C 30.10in /  1019.2hPa West 6mph /  9.7km/h 11mph /  17.7km/h 72% 0.00in /  0mm 355 W/m2
09:40 67.5 °F /  19.7 °C 57.3 °F /  14.1 °C 30.10in /  1019.2hPa NW 3mph /  4.8km/h 12mph /  19.3km/h 70% 0.00in /  0mm 204 W/m2
09:50 67.8 °F /  19.9 °C 58.5 °F /  14.7 °C 30.11in /  1019.5hPa NW 3mph /  4.8km/h 8mph /  12.9km/h 72% 0.00in /  0mm 773 W/m2
10:00 69.6 °F /  20.9 °C 59 °F /  15 °C 30.11in /  1019.5hPa NW 2mph /  3.2km/h 9mph /  14.5km/h 69% 0.00in /  0mm 295 W/m2
10:10 70 °F /  21.1 °C 58.5 °F /  14.7 °C 30.12in /  1019.9hPa NNW 7mph /  11.3km/h 14mph /  22.5km/h 67% 0.00in /  0mm 210 W/m2
10:20 69.3 °F /  20.7 °C 56.2 °F /  13.4 °C 30.12in /  1019.9hPa NNW 8mph /  12.9km/h 15mph /  24.1km/h 63% 0.00in /  0mm 183 W/m2
10:30 68.7 °F /  20.4 °C 56 °F /  13.3 °C 30.12in /  1019.9hPa NNW 6mph /  9.7km/h 15mph /  24.1km/h 64% 0.00in /  0mm 191 W/m2
10:40 68.4 °F /  20.2 °C 55.3 °F /  12.9 °C 30.12in /  1019.9hPa NNW 6mph /  9.7km/h 12mph /  19.3km/h 63% 0.00in /  0mm 218 W/m2
10:50 69 °F /  20.6 °C 55.5 °F /  13.1 °C 30.12in /  1019.9hPa NW 6mph /  9.7km/h 17mph /  27.4km/h 62% 0.00in /  0mm 882 W/m2
11:00 69.4 °F /  20.8 °C 54.5 °F /  12.5 °C 30.13in /  1020.2hPa NNW 8mph /  12.9km/h 17mph /  27.4km/h 59% 0.00in /  0mm 252 W/m2
11:10 69.1 °F /  20.6 °C 54.6 °F /  12.6 °C 30.13in /  1020.2hPa NNW 6mph /  9.7km/h 17mph /  27.4km/h 60% 0.00in /  0mm 277 W/m2
11:20 69.1 °F /  20.6 °C 54.1 °F /  12.3 °C 30.13in /  1020.2hPa NNW 8mph /  12.9km/h 14mph /  22.5km/h 59% 0.00in /  0mm 267 W/m2
11:30 69.2 °F /  20.7 °C 52.4 °F /  11.3 °C 30.13in /  1020.2hPa NNW 7mph /  11.3km/h 18mph /  29km/h 55% 0.00in /  0mm 644 W/m2
11:40 70.3 °F /  21.3 °C 53.4 °F /  11.9 °C 30.13in /  1020.2hPa NNW 5mph /  8km/h 17mph /  27.4km/h 55% 0.00in /  0mm 353 W/m2
11:50 70.5 °F /  21.4 °C 54.5 °F /  12.5 °C 30.14in /  1020.5hPa North 8mph /  12.9km/h 17mph /  27.4km/h 57% 0.00in /  0mm 250 W/m2
12:00 70.3 °F /  21.3 °C 53.4 °F /  11.9 °C 30.13in /  1020.2hPa NNW 7mph /  11.3km/h 18mph /  29km/h 55% 0.00in /  0mm 685 W/m2
12:10 71.4 °F /  21.9 °C 53.9 °F /  12.2 °C 30.13in /  1020.2hPa North 7mph /  11.3km/h 13mph /  20.9km/h 54% 0.00in /  0mm 319 W/m2
12:20 71.1 °F /  21.7 °C 53.6 °F /  12 °C 30.14in /  1020.5hPa North 5mph /  8km/h 16mph /  25.7km/h 54% 0.00in /  0mm 907 W/m2
12:30 71.6 °F /  22 °C 53.5 °F /  11.9 °C 30.14in /  1020.5hPa NNW 8mph /  12.9km/h 19mph /  30.6km/h 53% 0.00in /  0mm 341 W/m2
12:40 70.9 °F /  21.6 °C 52.4 °F /  11.3 °C 30.14in /  1020.5hPa NNW 6mph /  9.7km/h 19mph /  30.6km/h 52% 0.00in /  0mm 358 W/m2
12:50 71.8 °F /  22.1 °C 53.2 °F /  11.8 °C 30.14in /  1020.5hPa NNW 9mph /  14.5km/h 21mph /  33.8km/h 52% 0.00in /  0mm 693 W/m2
13:00 71.6 °F /  22 °C 51.4 °F /  10.8 °C 30.14in /  1020.5hPa NNW 10mph /  16.1km/h 20mph /  32.2km/h 49% 0.00in /  0mm 282 W/m2
13:10 72.5 °F /  22.5 °C 52.8 °F /  11.6 °C 30.14in /  1020.5hPa NW 9mph /  14.5km/h 16mph /  25.7km/h 50% 0.00in /  0mm 936 W/m2
13:20 73 °F /  22.8 °C 53.3 °F /  11.8 °C 30.13in /  1020.2hPa NW 7mph /  11.3km/h 16mph /  25.7km/h 50% 0.00in /  0mm 928 W/m2
13:40 74.3 °F /  23.5 °C 52.7 °F /  11.5 °C 30.13in /  1020.2hPa NW 8mph /  12.9km/h 14mph /  22.5km/h 47% 0.00in /  0mm 908 W/m2
13:50 74.6 °F /  23.7 °C 50.7 °F /  10.4 °C 30.13in /  1020.2hPa WNW 10mph /  16.1km/h 18mph /  29km/h 43% 0.00in /  0mm 896 W/m2
14:00 74.7 °F /  23.7 °C 50.7 °F /  10.4 °C 30.13in /  1020.2hPa NW 6mph /  9.7km/h 14mph /  22.5km/h 43% 0.00in /  0mm 538 W/m2
14:10 74.1 °F /  23.4 °C 50.2 °F /  10.1 °C 30.13in /  1020.2hPa North 5mph /  8km/h 13mph /  20.9km/h 43% 0.00in /  0mm 245 W/m2
14:20 74.1 °F /  23.4 °C 49.6 °F /  9.8 °C 30.13in /  1020.2hPa NW 3mph /  4.8km/h 14mph /  22.5km/h 42% 0.00in /  0mm 851 W/m2
14:30 74.8 °F /  23.8 °C 50.2 °F /  10.1 °C 30.13in /  1020.2hPa North 6mph /  9.7km/h 13mph /  20.9km/h 42% 0.00in /  0mm 834 W/m2
14:40 75.6 °F /  24.2 °C 50.9 °F /  10.5 °C 30.13in /  1020.2hPa North 7mph /  11.3km/h 19mph /  30.6km/h 42% 0.00in /  0mm 815 W/m2
14:50 74.8 °F /  23.8 °C 48.2 °F /  9 °C 30.14in /  1020.5hPa NNW 8mph /  12.9km/h 17mph /  27.4km/h 39% 0.00in /  0mm 794 W/m2
15:10 75 °F /  23.9 °C 47 °F /  8.3 °C 30.14in /  1020.5hPa NNW 6mph /  9.7km/h 17mph /  27.4km/h 37% 0.00in /  0mm 751 W/m2
15:20 74.8 °F /  23.8 °C 46.8 °F /  8.2 °C 30.14in /  1020.5hPa North 9mph /  14.5km/h 20mph /  32.2km/h 37% 0.00in /  0mm 370 W/m2
15:30 74.8 °F /  23.8 °C 45.3 °F /  7.4 °C 30.15in /  1020.9hPa North 7mph /  11.3km/h 20mph /  32.2km/h 35% 0.00in /  0mm 702 W/m2
15:40 74.7 °F /  23.7 °C 44.4 °F /  6.9 °C 30.15in /  1020.9hPa NNW 6mph /  9.7km/h 13mph /  20.9km/h 34% 0.00in /  0mm 677 W/m2
15:50 74.7 °F /  23.7 °C 45.2 °F /  7.3 °C 30.15in /  1020.9hPa North 6mph /  9.7km/h 16mph /  25.7km/h 35% 0.00in /  0mm 646 W/m2
16:00 74.5 °F /  23.6 °C 45 °F /  7.2 °C 30.15in /  1020.9hPa North 5mph /  8km/h 14mph /  22.5km/h 35% 0.00in /  0mm 623 W/m2
16:10 74.1 °F /  23.4 °C 43.9 °F /  6.6 °C 30.15in /  1020.9hPa North 6mph /  9.7km/h 16mph /  25.7km/h 34% 0.00in /  0mm 595 W/m2
16:20 74.1 °F /  23.4 °C 44.7 °F /  7.1 °C 30.16in /  1021.2hPa North 5mph /  8km/h 14mph /  22.5km/h 35% 0.00in /  0mm 566 W/m2
16:30 73.9 °F /  23.3 °C 44.5 °F /  6.9 °C 30.17in /  1021.6hPa North 5mph /  8km/h 14mph /  22.5km/h 35% 0.00in /  0mm 537 W/m2
16:40 73.9 °F /  23.3 °C 43.8 °F /  6.6 °C 30.17in /  1021.6hPa NNW 8mph /  12.9km/h 17mph /  27.4km/h 34% 0.00in /  0mm 507 W/m2
16:50 72.7 °F /  22.6 °C 43.5 °F /  6.4 °C 30.17in /  1021.6hPa North 6mph /  9.7km/h 15mph /  24.1km/h 35% 0.00in /  0mm 198 W/m2
17:00 71.6 °F /  22 °C 51.4 °F /  10.8 °C 30.17in /  1021.6hPa North 5mph /  8km/h 12mph /  19.3km/h 49% 0.00in /  0mm 159 W/m2
17:10 70.4 °F /  21.3 °C 53.4 °F /  11.9 °C 30.19in /  1022.2hPa North 3mph /  4.8km/h 13mph /  20.9km/h 55% 0.00in /  0mm 149 W/m2
17:20 68.7 °F /  20.4 °C 53.4 °F /  11.9 °C 30.20in /  1022.6hPa NNW 7mph /  11.3km/h 16mph /  25.7km/h 58% 0.00in /  0mm 136 W/m2
17:30 66.4 °F /  19.1 °C 50.7 °F /  10.4 °C 30.22in /  1023.2hPa NW 6mph /  9.7km/h 17mph /  27.4km/h 57% 0.00in /  0mm 60 W/m2
17:40 64.6 °F /  18.1 °C 49.5 °F /  9.7 °C 30.23in /  1023.6hPa NNW 6mph /  9.7km/h 14mph /  22.5km/h 58% 0.00in /  0mm 37 W/m2
17:50 63.7 °F /  17.6 °C 49.5 °F /  9.7 °C 30.23in /  1023.6hPa North 5mph /  8km/h 10mph /  16.1km/h 60% 0.00in /  0mm 46 W/m2
18:00 63 °F /  17.2 °C 50.6 °F /  10.3 °C 30.23in /  1023.6hPa North 2mph /  3.2km/h 10mph /  16.1km/h 64% 0.00in /  0mm 33 W/m2
18:10 62.1 °F /  16.7 °C 49.7 °F /  9.8 °C 30.23in /  1023.6hPa North 1mph /  1.6km/h 5mph /  8km/h 64% 0.00in /  0mm 27 W/m2
18:20 61.3 °F /  16.3 °C 50.3 °F /  10.2 °C 30.23in /  1023.6hPa NNW 3mph /  4.8km/h 6mph /  9.7km/h 67% 0.00in /  0mm 60 W/m2
18:30 60.6 °F /  15.9 °C 51.6 °F /  10.9 °C 30.24in /  1023.9hPa NW 2mph /  3.2km/h 6mph /  9.7km/h 72% 0.00in /  0mm 144 W/m2
18:40 60.4 °F /  15.8 °C 50.6 °F /  10.3 °C 30.25in /  1024.3hPa NW 2mph /  3.2km/h 7mph /  11.3km/h 70% 0.00in /  0mm 114 W/m2
18:50 60.4 °F /  15.8 °C 50.6 °F /  10.3 °C 30.25in /  1024.3hPa West 3mph /  4.8km/h 6mph /  9.7km/h 70% 0.00in /  0mm 63 W/m2
19:00 60.4 °F /  15.8 °C 50.2 °F /  10.1 °C 30.25in /  1024.3hPa WNW 1mph /  1.6km/h 5mph /  8km/h 69% 0.00in /  0mm 68 W/m2
19:10 60.4 °F /  15.8 °C 50.2 °F /  10.1 °C 30.25in /  1024.3hPa NW 2mph /  3.2km/h 5mph /  8km/h 69% 0.00in /  0mm 38 W/m2
19:20 60.4 °F /  15.8 °C 50.2 °F /  10.1 °C 30.26in /  1024.6hPa Calm   2mph /  3.2km/h 69% 0.00in /  0mm 31 W/m2
19:30 59.7 °F /  15.4 °C 49.5 °F /  9.7 °C 30.26in /  1024.6hPa Calm   2mph /  3.2km/h 69% 0.00in /  0mm 18 W/m2
19:40 59 °F /  15 °C 49.2 °F /  9.6 °C 30.27in /  1024.9hPa Calm   3mph /  4.8km/h 70% 0.00in /  0mm 11 W/m2
19:50 58.1 °F /  14.5 °C 49.1 °F /  9.5 °C 30.27in /  1024.9hPa Calm   2mph /  3.2km/h 72% 0.00in /  0mm 5 W/m2
20:00 57.4 °F /  14.1 °C 48.8 °F /  9.3 °C 30.28in /  1025.3hPa Calm   2mph /  3.2km/h 73% 0.00in /  0mm 0 W/m2
20:10 56.7 °F /  13.7 °C 48.5 °F /  9.2 °C 30.28in /  1025.3hPa NNW 1mph /  1.6km/h 2mph /  3.2km/h 74% 0.00in /  0mm 0 W/m2
20:20 55.9 °F /  13.3 °C 48.1 °F /  8.9 °C 30.28in /  1025.3hPa North 2mph /  3.2km/h 4mph /  6.4km/h 75% 0.00in /  0mm 0 W/m2
20:30 55.4 °F /  13 °C 48.3 °F /  9.1 °C 30.29in /  1025.6hPa Calm   4mph /  6.4km/h 77% 0.00in /  0mm 0 W/m2
20:40 54.5 °F /  12.5 °C 47.8 °F /  8.8 °C 30.29in /  1025.6hPa West 1mph /  1.6km/h 3mph /  4.8km/h 78% 0.00in /  0mm 0 W/m2
20:50 53.6 °F /  12 °C 46.9 °F /  8.3 °C 30.30in /  1026hPa West 2mph /  3.2km/h 3mph /  4.8km/h 78% 0.00in /  0mm 0 W/m2
21:00 52.7 °F /  11.5 °C 46.4 °F /  8 °C 30.30in /  1026hPa West 2mph /  3.2km/h 6mph /  9.7km/h 79% 0.00in /  0mm 0 W/m2
21:10 51.8 °F /  11 °C 45.8 °F /  7.7 °C 30.31in /  1026.3hPa West 2mph /  3.2km/h 4mph /  6.4km/h 80% 0.00in /  0mm 0 W/m2
21:20 51.3 °F /  10.7 °C 45.6 °F /  7.6 °C 30.31in /  1026.3hPa WSW 2mph /  3.2km/h 4mph /  6.4km/h 81% 0.00in /  0mm 0 W/m2
21:30 50.7 °F /  10.4 °C 45.1 °F /  7.3 °C 30.32in /  1026.6hPa West 1mph /  1.6km/h 4mph /  6.4km/h 81% 0.00in /  0mm 0 W/m2
21:40 50.2 °F /  10.1 °C 45.2 °F /  7.3 °C 30.32in /  1026.6hPa West 2mph /  3.2km/h 3mph /  4.8km/h 83% 0.00in /  0mm 0 W/m2
21:50 49.8 °F /  9.9 °C 44.9 °F /  7.2 °C 30.32in /  1026.6hPa WNW 1mph /  1.6km/h 3mph /  4.8km/h 83% 0.00in /  0mm 0 W/m2
22:00 49.5 °F /  9.7 °C 44.5 °F /  6.9 °C 30.32in /  1026.6hPa WSW 1mph /  1.6km/h 3mph /  4.8km/h 83% 0.00in /  0mm 0 W/m2
22:10 49.1 °F /  9.5 °C 44.2 °F /  6.8 °C 30.32in /  1026.6hPa Calm   2mph /  3.2km/h 83% 0.00in /  0mm 0 W/m2
22:20 48.7 °F /  9.3 °C 43.8 °F /  6.6 °C 30.33in /  1027hPa WNW 1mph /  1.6km/h 2mph /  3.2km/h 83% 0.00in /  0mm 0 W/m2
22:30 48.4 °F /  9.1 °C 43.4 °F /  6.3 °C 30.33in /  1027hPa Calm   2mph /  3.2km/h 83% 0.00in /  0mm 0 W/m2
22:40 47.8 °F /  8.8 °C 43.2 °F /  6.2 °C 30.33in /  1027hPa Calm   2mph /  3.2km/h 84% 0.00in /  0mm 0 W/m2
22:50 47.5 °F /  8.6 °C 42.9 °F /  6.1 °C 30.34in /  1027.3hPa WNW 1mph /  1.6km/h 2mph /  3.2km/h 84% 0.00in /  0mm 0 W/m2
23:00 46.8 °F /  8.2 °C 42.2 °F /  5.7 °C 30.34in /  1027.3hPa West 2mph /  3.2km/h 3mph /  4.8km/h 84% 0.00in /  0mm 0 W/m2
23:10 46.2 °F /  7.9 °C 41.7 °F /  5.4 °C 30.34in /  1027.3hPa West 1mph /  1.6km/h 3mph /  4.8km/h 84% 0.00in /  0mm 0 W/m2
23:20 45.7 °F /  7.6 °C 41.4 °F /  5.2 °C 30.34in /  1027.3hPa WSW 1mph /  1.6km/h 3mph /  4.8km/h 85% 0.00in /  0mm 0 W/m2
23:30 45.3 °F /  7.4 °C 41.1 °F /  5.1 °C 30.34in /  1027.3hPa West 1mph /  1.6km/h 2mph /  3.2km/h 85% 0.00in /  0mm 0 W/m2
23:40 45 °F /  7.2 °C 41 °F /  5 °C 30.34in /  1027.3hPa NW 1mph /  1.6km/h 3mph /  4.8km/h 86% 0.00in /  0mm 0 W/m2
23:50 44.8 °F /  7.1 °C 40.8 °F /  4.9 °C 30.35in /  1027.7hPa Calm   2mph /  3.2km/h 86% 0.00in /  0mm 0 W/m2
Knjazevac, Serbia
Compliments of Weather Underground - 2 mb